Archival Weather

Heathrow

Heathrow, United Kingdom (EGLL)

Report from: Thursday, June 23, 2022 3:50 AM BST
Current time: Tuesday, August 16, 2022 9:02 AM BST

Current weather
Weather history
Weather forecast

Temperature14.0°C (57.2°F)
Dew point11.0°C (51.8°F)
Winds 2 kts (1 m/s, 2.3 mph) Vrb
Winds variableWinds variable
Visibility6.2 mi. (10 km)
Clouds Sky clear
Altimeter29.88 in.Hg (1012 mB)
Relative humidity82 %
Density altitude109 ft. (33 m)
Remarks Fully automated report
No clouds detected
No significant changes expected in the next two hours
Flight conditions Visual Meteorological Conditions
Raw dataEGLL 230250Z AUTO VRB02KT 9999 NCD 14/11 Q1012 NOSIG
An error has occurred. This application may no longer respond until reloaded. Reload 🗙